createdAt,value
2018-10-19T00:00:02.854Z,11.13
2018-10-19T00:02:30.786Z,10.20
2018-10-19T00:04:58.604Z,10.87
2018-10-19T00:07:26.498Z,10.90
2018-10-19T00:09:54.273Z,10.33
2018-10-19T00:12:21.962Z,10.20
2018-10-19T00:14:50.134Z,10.00
2018-10-19T00:17:17.779Z,10.70
2018-10-19T00:19:45.741Z,9.40
2018-10-19T00:22:13.630Z,9.93
2018-10-19T00:24:41.534Z,10.10
2018-10-19T00:28:44.697Z,9.28
2018-10-19T00:31:12.574Z,9.93
2018-10-19T00:33:40.418Z,9.57
2018-10-19T00:36:08.198Z,9.90
2018-10-19T00:38:36.187Z,9.93
2018-10-19T00:41:04.578Z,9.77
2018-10-19T00:43:32.311Z,9.67
2018-10-19T00:46:00.018Z,9.73
2018-10-19T00:48:28.510Z,11.45
2018-10-19T00:50:56.243Z,11.80
2018-10-19T00:53:23.934Z,11.65
2018-10-19T00:55:51.954Z,10.63
2018-10-19T00:58:19.690Z,11.20
2018-10-19T01:00:47.578Z,10.60
2018-10-19T01:03:15.508Z,11.40
2018-10-19T01:05:43.210Z,10.93
2018-10-19T01:10:38.834Z,9.93
2018-10-19T01:13:06.670Z,9.93
2018-10-19T01:15:34.578Z,10.43
2018-10-19T01:18:02.966Z,9.97
2018-10-19T01:20:30.842Z,10.13
2018-10-19T01:25:26.038Z,9.53
2018-10-19T01:27:53.899Z,9.70
2018-10-19T01:30:21.726Z,10.40
2018-10-19T01:32:49.609Z,11.57
2018-10-19T01:35:17.483Z,11.83
2018-10-19T01:40:13.277Z,12.23
2018-10-19T01:43:12.698Z,10.28
2018-10-19T01:45:46.597Z,10.20
2018-10-19T01:48:14.679Z,10.13
2018-10-19T01:50:42.518Z,10.47
2018-10-19T01:53:10.361Z,9.63
2018-10-19T01:55:38.216Z,9.80
2018-10-19T01:58:05.910Z,9.83
2018-10-19T02:00:33.726Z,10.53
2018-10-19T02:03:01.537Z,11.37
2018-10-19T02:05:29.210Z,12.37
2018-10-19T02:07:57.038Z,11.43
2018-10-19T02:10:24.902Z,13.08
2018-10-19T02:12:52.726Z,11.97
2018-10-19T02:15:20.578Z,11.75
2018-10-19T02:17:48.483Z,11.70
2018-10-19T02:22:43.777Z,10.93
2018-10-19T02:25:12.860Z,11.23
2018-10-19T02:27:42.185Z,10.58
2018-10-19T02:32:40.200Z,10.48
2018-10-19T02:37:38.742Z,10.05
2018-10-19T02:40:08.854Z,10.60
2018-10-19T02:42:38.822Z,11.12
2018-10-19T02:45:09.659Z,11.30
2018-10-19T02:47:38.926Z,11.67
2018-10-19T02:50:08.845Z,12.82
2018-10-19T02:52:38.858Z,12.20
2018-10-19T02:55:08.903Z,12.20
2018-10-19T02:57:38.793Z,11.80
2018-10-19T03:00:10.009Z,10.23
2018-10-19T03:05:08.902Z,10.18
2018-10-19T03:10:07.840Z,10.15
2018-10-19T03:12:36.981Z,10.43
2018-10-19T03:15:07.880Z,9.95
2018-10-19T03:17:37.834Z,10.50
2018-10-19T03:20:07.975Z,10.67
2018-10-19T03:22:37.841Z,12.57
2018-10-19T03:25:07.846Z,13.20
2018-10-19T03:27:37.819Z,12.30
2018-10-19T03:30:07.862Z,12.25
2018-10-19T03:32:36.976Z,11.83
2018-10-19T03:35:07.921Z,10.40
2018-10-19T03:37:36.958Z,9.93
2018-10-19T03:41:42.985Z,12.00
2018-10-19T03:44:10.719Z,11.97
2018-10-19T03:46:38.633Z,11.20
2018-10-19T03:49:06.672Z,11.00
2018-10-19T03:51:34.493Z,10.37
2018-10-19T03:54:02.333Z,10.20
2018-10-19T03:56:30.064Z,10.37
2018-10-19T03:58:58.053Z,10.88
2018-10-19T04:01:25.753Z,10.03
2018-10-19T04:03:53.593Z,9.93
2018-10-19T04:08:48.860Z,9.60
2018-10-19T04:11:16.844Z,10.40
2018-10-19T04:13:44.642Z,12.13
2018-10-19T04:16:12.540Z,12.83
2018-10-19T04:18:40.489Z,13.10
2018-10-19T04:21:08.268Z,12.30
2018-10-19T04:23:36.026Z,13.30
2018-10-19T04:26:04.212Z,12.67
2018-10-19T04:28:32.379Z,13.00
2018-10-19T04:31:00.215Z,11.13
2018-10-19T04:33:27.979Z,11.37
2018-10-19T04:35:55.974Z,10.70
2018-10-19T04:38:23.960Z,9.75
2018-10-19T04:40:51.992Z,11.20
2018-10-19T04:43:19.821Z,10.00
2018-10-19T04:45:47.722Z,9.80
2018-10-19T04:48:15.764Z,11.10
2018-10-19T04:50:43.710Z,10.47
2018-10-19T04:53:21.638Z,11.05
2018-10-19T04:55:49.588Z,14.03
2018-10-19T04:58:17.515Z,12.50
2018-10-19T05:00:45.567Z,13.40
2018-10-19T05:03:13.557Z,13.43
2018-10-19T05:06:48.898Z,11.40
2018-10-19T05:09:16.875Z,10.10
2018-10-19T05:11:44.706Z,10.90
2018-10-19T05:14:12.678Z,11.17
2018-10-19T05:16:40.594Z,12.53
2018-10-19T05:19:08.678Z,11.87
2018-10-19T05:21:37.214Z,13.73
2018-10-19T05:24:05.170Z,13.07
2018-10-19T05:26:33.590Z,14.07
2018-10-19T05:31:28.895Z,13.63
2018-10-19T05:33:57.392Z,12.83
2018-10-19T05:36:25.694Z,11.43
2018-10-19T05:38:53.603Z,12.23
2018-10-19T05:41:21.567Z,11.48
2018-10-19T05:43:49.550Z,12.07
2018-10-19T05:46:17.470Z,11.30
2018-10-19T05:48:45.795Z,12.93
2018-10-19T05:51:13.721Z,12.83
2018-10-19T05:53:41.594Z,12.83
2018-10-19T05:56:09.596Z,11.97
2018-10-19T05:58:37.385Z,13.48
2018-10-19T06:01:08.993Z,13.23
2018-10-19T06:03:36.806Z,15.17
2018-10-19T06:06:04.674Z,15.53
2018-10-19T06:12:26.475Z,11.83
2018-10-19T06:14:54.342Z,13.00
2018-10-19T06:17:22.312Z,14.20
2018-10-19T06:19:50.032Z,13.83
2018-10-19T06:22:17.983Z,15.77
2018-10-19T06:27:13.712Z,15.37
2018-10-19T06:29:41.592Z,14.47
2018-10-19T06:32:09.544Z,14.65
2018-10-19T06:34:37.310Z,15.17
2018-10-19T06:37:05.075Z,12.70
2018-10-19T06:39:33.075Z,12.77
2018-10-19T06:42:00.998Z,12.98
2018-10-19T06:46:56.209Z,12.70
2018-10-19T06:49:24.166Z,12.23
2018-10-19T06:51:52.327Z,11.70
2018-10-19T06:58:55.610Z,12.43
2018-10-19T07:01:23.496Z,12.13
2018-10-19T07:03:51.478Z,12.35
2018-10-19T07:06:19.364Z,13.83
2018-10-19T07:08:47.124Z,14.93
2018-10-19T07:11:15.009Z,14.83
2018-10-19T07:13:42.682Z,15.25
2018-10-19T07:16:10.468Z,16.33
2018-10-19T07:18:38.309Z,15.80
2018-10-19T07:21:06.059Z,14.20
2018-10-19T07:26:01.632Z,13.80
2018-10-19T07:28:29.485Z,12.57
2018-10-19T07:30:57.231Z,10.93
2018-10-19T07:33:25.039Z,11.80
2018-10-19T07:38:20.228Z,12.67
2018-10-19T07:40:47.969Z,12.25
2018-10-19T07:45:43.006Z,11.53
2018-10-19T07:48:13.091Z,11.85
2018-10-19T07:50:42.997Z,13.00
2018-10-19T07:53:13.066Z,15.45
2018-10-19T07:56:17.738Z,14.35
2018-10-19T07:58:45.390Z,12.63
2018-10-19T08:01:13.297Z,12.30
2018-10-19T08:06:10.014Z,11.87
2018-10-19T08:08:37.868Z,12.70
2018-10-19T08:11:06.083Z,11.83
2018-10-19T08:13:33.917Z,11.08
2018-10-19T08:16:01.831Z,12.47
2018-10-19T08:18:29.698Z,11.67
2018-10-19T08:20:57.650Z,11.97
2018-10-19T08:23:25.484Z,15.33
2018-10-19T08:25:53.372Z,14.70
2018-10-19T08:30:48.517Z,16.10
2018-10-19T08:33:16.223Z,16.70
2018-10-19T08:35:44.049Z,16.00
2018-10-19T08:38:11.990Z,15.15
2018-10-19T08:43:07.097Z,13.33
2018-10-19T08:45:35.022Z,12.70
2018-10-19T08:50:30.523Z,12.93
2018-10-19T08:52:58.523Z,11.80
2018-10-19T08:55:26.227Z,11.40
2018-10-19T08:57:54.293Z,11.40
2018-10-19T09:00:22.075Z,11.20
2018-10-19T09:06:00.497Z,17.42
2018-10-19T09:08:28.229Z,15.07
2018-10-19T09:10:58.024Z,16.07
2018-10-19T09:13:28.043Z,13.90
2018-10-19T09:18:34.905Z,11.75
2018-10-19T09:21:02.973Z,11.97
2018-10-19T09:23:30.694Z,11.43
2018-10-19T09:28:26.458Z,11.35
2018-10-19T09:30:54.374Z,12.37
2018-10-19T09:33:22.231Z,14.13
2018-10-19T09:35:50.076Z,14.93
2018-10-19T09:38:18.381Z,18.57
2018-10-19T09:40:46.341Z,19.23
2018-10-19T09:43:15.490Z,19.23
2018-10-19T09:45:43.317Z,18.80
2018-10-19T09:48:11.056Z,19.33
2018-10-19T09:50:38.949Z,17.55
2018-10-19T09:53:10.809Z,13.50
2018-10-19T09:55:38.762Z,12.87
2018-10-19T09:58:06.626Z,12.80
2018-10-19T10:00:40.611Z,14.13
2018-10-19T10:03:08.650Z,12.97
2018-10-19T10:08:04.172Z,13.83
2018-10-19T10:10:35.211Z,14.63
2018-10-19T10:13:03.040Z,17.07
2018-10-19T10:15:31.061Z,16.90
2018-10-19T10:17:58.886Z,18.37
2018-10-19T10:20:26.723Z,19.07
2018-10-19T10:22:54.611Z,18.48
2018-10-19T10:25:23.182Z,18.57
2018-10-19T10:27:50.887Z,18.43
2018-10-19T10:30:20.913Z,17.10
2018-10-19T10:35:19.967Z,22.23
2018-10-19T10:37:49.974Z,21.27
2018-10-19T10:40:20.024Z,26.53
2018-10-19T10:42:49.990Z,29.10
2018-10-19T10:45:19.945Z,30.63
2018-10-19T10:47:53.953Z,28.83
2018-10-19T10:50:23.890Z,32.63
2018-10-19T10:52:53.971Z,33.67
2018-10-19T10:55:23.971Z,47.27
2018-10-19T10:57:54.008Z,48.60
2018-10-19T11:00:23.962Z,52.07
2018-10-19T11:02:53.982Z,53.27
2018-10-19T11:05:23.938Z,52.07
2018-10-19T11:07:53.986Z,55.57
2018-10-19T11:10:23.997Z,54.13
2018-10-19T11:12:53.985Z,50.90
2018-10-19T11:15:23.970Z,53.03
2018-10-19T11:17:53.952Z,49.27
2018-10-19T11:20:23.975Z,45.47
2018-10-19T11:22:53.995Z,43.43
2018-10-19T11:25:24.000Z,42.43
2018-10-19T11:27:54.011Z,41.70
2018-10-19T11:30:23.971Z,39.07
2018-10-19T11:32:54.002Z,40.70
2018-10-19T11:35:23.978Z,40.83
2018-10-19T11:40:37.620Z,40.58
2018-10-19T11:43:05.889Z,41.93
2018-10-19T11:48:01.914Z,40.00
2018-10-19T11:50:29.899Z,37.90
2018-10-19T11:52:57.999Z,38.80
2018-10-19T11:55:25.985Z,40.43
2018-10-19T11:57:53.987Z,41.15
2018-10-19T12:00:21.838Z,36.73
2018-10-19T12:02:49.915Z,37.75
2018-10-19T12:05:17.782Z,38.13
2018-10-19T12:07:45.889Z,34.50
2018-10-19T12:10:14.157Z,37.87
2018-10-19T12:15:11.567Z,35.43
2018-10-19T12:17:40.016Z,36.17
2018-10-19T12:22:37.022Z,36.47
2018-10-19T12:25:06.767Z,35.77
2018-10-19T12:27:36.959Z,37.33
2018-10-19T12:30:06.958Z,35.80
2018-10-19T12:32:36.949Z,35.30
2018-10-19T12:35:07.927Z,35.93
2018-10-19T12:40:07.927Z,34.80
2018-10-19T12:42:37.981Z,35.13
2018-10-19T12:45:20.841Z,37.13
2018-10-19T12:49:06.976Z,35.52
2018-10-19T12:51:37.009Z,35.20
2018-10-19T12:54:07.135Z,35.40
2018-10-19T12:56:36.971Z,35.73
2018-10-19T12:59:06.961Z,37.33
2018-10-19T13:01:36.973Z,35.73
2018-10-19T13:04:07.867Z,34.67
2018-10-19T13:06:37.877Z,33.90
2018-10-19T13:09:11.004Z,35.37
2018-10-19T13:11:40.922Z,34.13
2018-10-19T13:14:10.926Z,36.13
2018-10-19T13:17:23.298Z,36.25
2018-10-19T13:19:51.180Z,34.87
2018-10-19T13:22:18.763Z,34.63
2018-10-19T13:24:46.763Z,35.60
2018-10-19T13:27:15.079Z,34.80
2018-10-19T13:29:42.946Z,35.87
2018-10-19T13:34:38.588Z,35.38
2018-10-19T13:37:06.574Z,34.13
2018-10-19T13:42:01.629Z,34.37
2018-10-19T13:44:29.446Z,33.00
2018-10-19T13:46:57.187Z,33.60
2018-10-19T13:49:25.330Z,33.48
2018-10-19T13:51:53.322Z,33.85
2018-10-19T13:54:21.257Z,32.97
2018-10-19T13:56:48.966Z,33.13
2018-10-19T13:59:16.851Z,34.20
2018-10-19T14:01:44.586Z,35.05
2018-10-19T14:04:12.410Z,33.30
2018-10-19T14:07:31.846Z,33.83
2018-10-19T14:12:30.754Z,32.40
2018-10-19T14:15:00.854Z,34.37
2018-10-19T14:24:57.970Z,33.80
2018-10-19T14:27:27.754Z,32.60
2018-10-19T14:29:57.164Z,31.57
2018-10-19T14:32:26.746Z,33.70
2018-10-19T14:37:29.478Z,32.67
2018-10-19T14:39:57.211Z,33.73
2018-10-19T14:42:28.704Z,32.90
2018-10-19T14:44:56.618Z,33.50
2018-10-19T14:47:24.663Z,31.70
2018-10-19T14:49:52.402Z,32.47
2018-10-19T14:52:20.173Z,32.43
2018-10-19T14:54:47.897Z,32.37
2018-10-19T14:57:15.791Z,33.15
2018-10-19T15:04:41.998Z,35.03
2018-10-19T15:07:11.853Z,33.57
2018-10-19T15:12:10.935Z,34.40
2018-10-19T15:14:40.903Z,34.23
2018-10-19T15:17:10.669Z,33.17
2018-10-19T15:19:39.834Z,32.03
2018-10-19T15:22:10.183Z,32.43
2018-10-19T15:27:08.664Z,31.50
2018-10-19T15:29:38.009Z,31.12
2018-10-19T15:32:06.875Z,33.83
2018-10-19T15:34:36.221Z,33.05
2018-10-19T15:39:33.950Z,33.30
2018-10-19T15:42:03.708Z,31.53
2018-10-19T15:44:32.914Z,31.40
2018-10-19T15:47:03.590Z,31.00
2018-10-19T15:49:32.827Z,34.00
2018-10-19T15:52:02.182Z,32.20
2018-10-19T15:57:00.865Z,31.17
2018-10-19T15:59:30.200Z,31.45
2018-10-19T16:04:28.194Z,31.15
2018-10-19T16:09:25.954Z,30.32
2018-10-19T16:11:55.858Z,30.57
2018-10-19T16:14:25.748Z,30.50
2018-10-19T16:16:54.914Z,30.50
2018-10-19T16:19:24.630Z,31.87
2018-10-19T16:21:53.950Z,31.05
2018-10-19T16:24:23.618Z,32.20
2018-10-19T16:26:52.828Z,30.97
2018-10-19T16:29:22.067Z,32.55
2018-10-19T16:31:51.610Z,32.88
2018-10-19T16:36:49.198Z,33.48
2018-10-19T16:39:18.619Z,33.48
2018-10-19T16:41:46.929Z,33.80
2018-10-19T16:44:16.734Z,32.53
2018-10-19T16:46:46.735Z,33.70
2018-10-19T16:49:15.915Z,33.78
2018-10-19T16:51:45.212Z,33.15
2018-10-19T16:54:14.678Z,34.35
2018-10-19T16:56:43.766Z,32.83
2018-10-19T16:59:12.838Z,33.42
2018-10-19T17:01:41.918Z,33.13
2018-10-19T17:04:11.078Z,33.13
2018-10-19T17:06:40.621Z,34.30
2018-10-19T17:09:12.875Z,34.27
2018-10-19T17:11:42.897Z,34.23
2018-10-19T17:14:12.730Z,33.85
2018-10-19T17:16:42.071Z,34.23
2018-10-19T17:19:11.805Z,35.33
2018-10-19T17:21:40.877Z,34.38
2018-10-19T17:24:09.949Z,34.00
2018-10-19T17:26:39.176Z,33.83
2018-10-19T17:29:08.735Z,35.45
2018-10-19T17:34:06.704Z,34.10
2018-10-19T17:36:35.846Z,35.92
2018-10-19T17:39:07.918Z,34.90
2018-10-19T17:41:36.931Z,36.13
2018-10-19T17:44:06.647Z,35.65
2018-10-19T17:46:35.808Z,37.30
2018-10-19T17:49:05.074Z,36.03
2018-10-19T17:51:34.727Z,36.98
2018-10-19T17:54:04.033Z,35.88
2018-10-19T17:56:33.709Z,36.73
2018-10-19T17:59:02.890Z,36.73
2018-10-19T18:01:32.613Z,37.67
2018-10-19T18:04:01.831Z,37.35
2018-10-19T18:06:31.075Z,37.83
2018-10-19T18:09:00.841Z,37.90
2018-10-19T18:11:30.253Z,39.10
2018-10-19T18:16:28.750Z,39.30
2018-10-19T18:18:57.895Z,39.58
2018-10-19T18:21:27.737Z,38.00
2018-10-19T18:23:57.190Z,40.98
2018-10-19T18:28:54.943Z,40.35
2018-10-19T18:31:24.209Z,39.45
2018-10-19T18:33:53.801Z,38.67
2018-10-19T18:36:22.828Z,38.58
2018-10-19T18:38:51.971Z,39.13
2018-10-19T18:41:21.802Z,39.42
2018-10-19T18:46:19.606Z,39.85
2018-10-19T18:51:16.931Z,39.48
2018-10-19T18:53:46.683Z,39.88
2018-10-19T18:56:16.055Z,38.42
2018-10-19T18:58:45.880Z,37.75
2018-10-19T19:01:15.920Z,39.20
2018-10-19T19:03:45.633Z,39.70
2018-10-19T19:06:14.811Z,40.35
2018-10-19T19:08:43.954Z,38.10
2018-10-19T19:11:13.114Z,38.10
2018-10-19T19:13:45.819Z,37.03
2018-10-19T19:16:20.914Z,38.13
2018-10-19T19:18:50.806Z,38.60
2018-10-19T19:21:20.645Z,37.00
2018-10-19T19:23:55.002Z,38.60
2018-10-19T19:28:54.850Z,37.95
2018-10-19T19:31:24.171Z,39.13
2018-10-19T19:36:27.619Z,38.05
2018-10-19T19:38:57.849Z,38.20
2018-10-19T19:41:33.222Z,36.77
2018-10-19T19:46:31.181Z,36.93
2018-10-19T19:51:34.909Z,37.03
2018-10-19T19:54:04.798Z,35.20
2018-10-19T19:56:34.793Z,36.53
2018-10-19T19:59:04.211Z,36.58
2018-10-19T20:04:02.173Z,36.53
2018-10-19T20:09:00.066Z,37.33
2018-10-19T20:11:29.787Z,36.23
2018-10-19T20:13:59.182Z,36.68
2018-10-19T20:16:28.812Z,34.40
2018-10-19T20:18:58.790Z,35.30
2018-10-19T20:21:28.192Z,33.77
2018-10-19T20:23:57.840Z,32.50
2018-10-19T20:26:27.984Z,30.83
2018-10-19T20:31:29.198Z,31.00
2018-10-19T20:33:58.825Z,30.97
2018-10-19T20:36:28.858Z,31.90
2018-10-19T20:38:58.765Z,31.70
2018-10-19T20:41:28.830Z,32.23
2018-10-19T20:43:58.228Z,31.83
2018-10-19T20:48:56.587Z,28.50
2018-10-19T20:51:25.847Z,28.30
2018-10-19T20:53:55.762Z,27.77
2018-10-19T20:58:05.461Z,29.27
2018-10-19T21:00:33.334Z,28.67
2018-10-19T21:03:01.046Z,28.30
2018-10-19T21:05:28.914Z,27.30
2018-10-19T21:07:56.809Z,25.50
2018-10-19T21:10:24.586Z,28.07
2018-10-19T21:12:52.540Z,27.07
2018-10-19T21:15:20.481Z,25.68
2018-10-19T21:17:48.454Z,27.20
2018-10-19T21:20:16.370Z,27.13
2018-10-19T21:27:38.862Z,28.47
2018-10-19T21:30:08.933Z,30.40
2018-10-19T21:32:38.842Z,29.97
2018-10-19T21:35:08.877Z,28.20
2018-10-19T21:37:38.777Z,29.90
2018-10-19T21:40:08.835Z,25.97
2018-10-19T21:42:38.630Z,26.10
2018-10-19T21:45:08.844Z,26.27
2018-10-19T21:47:38.638Z,24.32
2018-10-19T21:50:09.046Z,24.00
2018-10-19T21:52:38.619Z,25.92
2018-10-19T21:55:09.843Z,23.75
2018-10-19T21:57:39.843Z,24.10
2018-10-19T22:00:09.938Z,26.87
2018-10-19T22:02:39.758Z,27.60
2018-10-19T22:05:10.959Z,27.87
2018-10-19T22:07:40.994Z,27.07
2018-10-19T22:11:34.795Z,24.80
2018-10-19T22:14:03.951Z,26.60
2018-10-19T22:16:33.830Z,26.20
2018-10-19T22:19:03.575Z,27.77
2018-10-19T22:21:32.891Z,27.27
2018-10-19T22:25:22.858Z,23.60
2018-10-19T22:30:21.771Z,23.90
2018-10-19T22:32:51.896Z,26.60
2018-10-19T22:35:21.786Z,26.80
2018-10-19T22:37:51.783Z,25.20
2018-10-19T22:40:20.978Z,27.27
2018-10-19T22:45:18.966Z,25.80
2018-10-19T22:50:16.950Z,23.27
2018-10-19T22:52:46.853Z,23.13
2018-10-19T22:55:16.954Z,23.40
2018-10-19T23:05:13.676Z,20.88
2018-10-19T23:07:42.809Z,22.53
2018-10-19T23:10:11.962Z,26.85
2018-10-19T23:12:41.736Z,26.10
2018-10-19T23:15:10.878Z,25.90
2018-10-19T23:17:40.774Z,25.85
2018-10-19T23:20:09.962Z,25.52
2018-10-19T23:22:39.809Z,24.00
2018-10-19T23:25:09.848Z,23.60
2018-10-19T23:27:39.626Z,21.90
2018-10-19T23:34:08.714Z,25.13
2018-10-19T23:36:37.007Z,24.67
2018-10-19T23:39:07.874Z,22.33
2018-10-19T23:41:35.658Z,21.60
2018-10-19T23:44:03.439Z,20.90
2018-10-19T23:46:31.308Z,20.67
2018-10-19T23:48:59.236Z,21.00
2018-10-19T23:51:26.969Z,20.13
2018-10-19T23:53:55.007Z,21.00
2018-10-19T23:56:22.883Z,21.93
2018-10-19T23:58:50.802Z,21.00
